createdAt,value
2022-07-26T00:01:59.207Z,18.35
2022-07-26T00:04:27.106Z,18.35
2022-07-26T00:06:54.802Z,18.35
2022-07-26T00:09:22.475Z,18.35
2022-07-26T00:11:49.989Z,18.34
2022-07-26T00:14:17.288Z,18.34
2022-07-26T00:16:44.716Z,18.34
2022-07-26T00:19:12.002Z,18.32
2022-07-26T00:21:40.624Z,18.31
2022-07-26T00:24:09.165Z,18.30
2022-07-26T00:26:37.099Z,18.28
2022-07-26T00:29:06.102Z,18.28
2022-07-26T00:31:33.889Z,18.27
2022-07-26T00:34:01.265Z,18.26
2022-07-26T00:36:29.694Z,18.25
2022-07-26T00:38:56.940Z,18.25
2022-07-26T00:41:24.139Z,18.24
2022-07-26T00:44:00.138Z,18.23
2022-07-26T00:46:27.971Z,18.21
2022-07-26T00:48:55.600Z,18.21
2022-07-26T00:51:23.121Z,18.20
2022-07-26T00:53:50.960Z,18.19
2022-07-26T00:56:18.725Z,18.17
2022-07-26T00:58:45.940Z,18.15
2022-07-26T01:01:13.354Z,18.12
2022-07-26T01:03:41.867Z,18.11
2022-07-26T01:06:09.373Z,18.09
2022-07-26T01:08:36.885Z,18.07
2022-07-26T01:11:04.125Z,18.05
2022-07-26T01:13:35.032Z,18.02
2022-07-26T01:16:04.124Z,18.00
2022-07-26T01:18:31.532Z,17.97
2022-07-26T01:21:02.209Z,17.95
2022-07-26T01:23:41.785Z,17.95
2022-07-26T01:26:09.554Z,17.95
2022-07-26T01:28:40.884Z,17.95
2022-07-26T01:31:08.805Z,17.95
2022-07-26T01:33:36.075Z,17.92
2022-07-26T01:36:03.720Z,17.90
2022-07-26T01:38:31.040Z,17.87
2022-07-26T01:40:58.455Z,17.81
2022-07-26T01:43:25.830Z,17.74
2022-07-26T01:45:55.314Z,17.71
2022-07-26T01:48:22.807Z,17.70
2022-07-26T01:50:50.160Z,17.61
2022-07-26T01:53:17.383Z,17.42
2022-07-26T01:55:44.642Z,17.22
2022-07-26T01:58:11.862Z,17.06
2022-07-26T02:00:39.151Z,16.93
2022-07-26T02:03:06.473Z,16.85
2022-07-26T02:05:33.731Z,16.77
2022-07-26T02:08:01.230Z,16.68
2022-07-26T02:10:47.701Z,16.62
2022-07-26T02:13:16.315Z,16.58
2022-07-26T02:15:43.757Z,16.57
2022-07-26T02:18:11.059Z,16.59
2022-07-26T02:20:38.361Z,16.59
2022-07-26T02:23:06.375Z,16.61
2022-07-26T02:25:33.674Z,16.64
2022-07-26T02:28:01.597Z,16.66
2022-07-26T02:30:29.416Z,16.68
2022-07-26T02:32:56.735Z,16.69
2022-07-26T02:35:24.161Z,16.71
2022-07-26T02:37:51.388Z,16.72
2022-07-26T02:40:19.622Z,16.73
2022-07-26T02:42:47.096Z,16.76
2022-07-26T02:45:14.357Z,16.78
2022-07-26T02:47:51.993Z,16.80
2022-07-26T02:50:26.044Z,16.79
2022-07-26T02:52:54.247Z,16.80
2022-07-26T02:55:25.609Z,16.80
2022-07-26T02:57:53.827Z,16.82
2022-07-26T03:00:26.850Z,16.85
2022-07-26T03:02:54.747Z,16.87
2022-07-26T03:05:22.658Z,16.88
2022-07-26T03:07:50.542Z,16.91
2022-07-26T03:10:18.028Z,16.90
2022-07-26T03:12:45.360Z,16.90
2022-07-26T03:15:12.809Z,16.87
2022-07-26T03:17:40.181Z,16.87
2022-07-26T03:20:08.657Z,16.85
2022-07-26T03:22:36.007Z,16.85
2022-07-26T03:25:03.888Z,16.85
2022-07-26T03:27:31.304Z,16.87
2022-07-26T03:29:59.227Z,16.86
2022-07-26T03:32:26.843Z,16.84
2022-07-26T03:34:54.084Z,16.83
2022-07-26T03:37:21.415Z,16.82
2022-07-26T03:39:48.794Z,16.81
2022-07-26T03:42:16.405Z,16.79
2022-07-26T03:44:43.721Z,16.77
2022-07-26T03:47:11.051Z,16.77
2022-07-26T03:49:38.285Z,16.76
2022-07-26T03:52:06.057Z,16.75
2022-07-26T03:54:33.244Z,16.75
2022-07-26T03:57:00.411Z,16.75
2022-07-26T03:59:27.698Z,16.73
2022-07-26T04:01:55.087Z,16.72
2022-07-26T04:04:25.171Z,16.70
2022-07-26T04:06:52.680Z,16.71
2022-07-26T04:09:20.403Z,16.73
2022-07-26T04:11:48.609Z,16.74
2022-07-26T04:14:15.955Z,16.76
2022-07-26T04:16:43.950Z,16.78
2022-07-26T04:19:11.362Z,16.79
2022-07-26T04:21:38.657Z,16.81
2022-07-26T04:24:07.221Z,16.83
2022-07-26T04:26:34.881Z,16.85
2022-07-26T04:29:02.119Z,16.87
2022-07-26T04:31:29.306Z,16.90
2022-07-26T04:34:03.901Z,16.92
2022-07-26T04:36:31.178Z,16.94
2022-07-26T04:38:58.383Z,16.95
2022-07-26T04:41:25.739Z,17.00
2022-07-26T04:43:52.907Z,17.02
2022-07-26T04:46:20.386Z,17.04
2022-07-26T04:48:47.679Z,17.03
2022-07-26T04:51:15.042Z,17.02
2022-07-26T04:53:42.197Z,17.00
2022-07-26T04:56:09.551Z,16.97
2022-07-26T04:58:36.762Z,16.95
2022-07-26T05:01:11.465Z,16.95
2022-07-26T05:03:39.539Z,16.96
2022-07-26T05:06:07.532Z,16.95
2022-07-26T05:08:34.769Z,16.95
2022-07-26T05:11:02.025Z,16.92
2022-07-26T05:13:29.927Z,16.92
2022-07-26T05:16:00.019Z,16.94
2022-07-26T05:18:29.897Z,16.97
2022-07-26T05:20:58.962Z,16.99
2022-07-26T05:23:26.212Z,17.01
2022-07-26T05:25:53.492Z,17.03
2022-07-26T05:28:20.936Z,17.06
2022-07-26T05:30:48.409Z,17.09
2022-07-26T05:33:16.663Z,17.11
2022-07-26T05:35:45.042Z,17.15
2022-07-26T05:38:12.327Z,17.19
2022-07-26T05:40:39.775Z,17.24
2022-07-26T05:43:07.424Z,17.29
2022-07-26T05:45:34.689Z,17.34
2022-07-26T05:48:01.952Z,17.39
2022-07-26T05:50:46.033Z,17.43
2022-07-26T05:53:13.266Z,17.45
2022-07-26T05:55:40.551Z,17.48
2022-07-26T05:58:08.252Z,17.49
2022-07-26T06:00:35.566Z,17.54
2022-07-26T06:03:21.508Z,17.58
2022-07-26T06:05:56.787Z,17.65
2022-07-26T06:08:26.636Z,17.70
2022-07-26T06:10:54.770Z,17.76
2022-07-26T06:13:22.802Z,17.78
2022-07-26T06:15:51.213Z,17.83
2022-07-26T06:18:18.646Z,17.86
2022-07-26T06:20:47.975Z,17.85
2022-07-26T06:23:15.615Z,17.85
2022-07-26T06:25:43.034Z,17.86
2022-07-26T06:28:11.341Z,17.92
2022-07-26T06:30:39.731Z,17.96
2022-07-26T06:33:07.847Z,18.00
2022-07-26T06:35:36.087Z,18.07
2022-07-26T06:38:07.070Z,18.12
2022-07-26T06:40:35.152Z,18.16
2022-07-26T06:43:17.448Z,18.19
2022-07-26T06:45:44.733Z,18.24
2022-07-26T06:48:11.975Z,18.31
2022-07-26T06:50:41.913Z,18.42
2022-07-26T06:53:09.086Z,18.57
2022-07-26T06:55:36.475Z,18.66
2022-07-26T06:58:03.830Z,18.72
2022-07-26T07:00:31.522Z,18.79
2022-07-26T07:02:58.814Z,18.86
2022-07-26T07:05:26.084Z,18.90
2022-07-26T07:07:58.331Z,18.98
2022-07-26T07:10:25.696Z,19.06
2022-07-26T07:12:52.918Z,19.13
2022-07-26T07:15:20.370Z,19.16
2022-07-26T07:17:49.068Z,19.17
2022-07-26T07:20:16.330Z,19.16
2022-07-26T07:22:43.663Z,19.09
2022-07-26T07:25:11.550Z,19.05
2022-07-26T07:27:42.500Z,19.03
2022-07-26T07:30:11.099Z,19.05
2022-07-26T07:32:38.669Z,19.08
2022-07-26T07:35:08.084Z,19.19
2022-07-26T07:37:53.684Z,19.25
2022-07-26T07:40:22.307Z,19.29
2022-07-26T07:42:50.270Z,19.34
2022-07-26T07:45:17.679Z,19.42
2022-07-26T07:47:44.993Z,19.48
2022-07-26T07:50:12.274Z,19.58
2022-07-26T07:52:39.513Z,19.70
2022-07-26T07:55:40.623Z,19.84
2022-07-26T07:57:56.377Z,19.93
2022-07-26T08:00:27.055Z,20.01
2022-07-26T08:02:55.291Z,20.01
2022-07-26T08:05:22.749Z,19.99
2022-07-26T08:07:50.187Z,19.92
2022-07-26T08:10:20.111Z,19.83
2022-07-26T08:12:47.486Z,19.76
2022-07-26T08:15:19.488Z,19.65
2022-07-26T08:17:52.256Z,19.59
2022-07-26T08:20:23.662Z,19.65
2022-07-26T08:22:52.960Z,19.76
2022-07-26T08:25:21.475Z,19.77
2022-07-26T08:28:03.124Z,19.77
2022-07-26T08:30:33.181Z,19.84
2022-07-26T08:33:00.423Z,20.04
2022-07-26T08:35:29.579Z,20.19
2022-07-26T08:37:57.917Z,20.13
2022-07-26T08:40:25.216Z,20.17
2022-07-26T08:42:56.351Z,20.19
2022-07-26T08:45:29.654Z,20.06
2022-07-26T08:50:48.332Z,19.93
2022-07-26T08:53:16.798Z,20.01
2022-07-26T08:56:05.794Z,19.81
2022-07-26T08:58:36.687Z,19.61
2022-07-26T09:01:13.045Z,19.41
2022-07-26T09:03:43.505Z,19.19
2022-07-26T09:06:28.170Z,19.10
2022-07-26T09:09:12.757Z,19.10
2022-07-26T09:11:40.095Z,19.13
2022-07-26T09:14:07.460Z,19.21
2022-07-26T09:16:39.059Z,19.30
2022-07-26T09:19:23.560Z,19.34
2022-07-26T09:21:53.115Z,19.50
2022-07-26T09:24:48.103Z,19.66
2022-07-26T09:27:18.649Z,19.82
2022-07-26T09:29:57.325Z,19.80
2022-07-26T09:32:26.716Z,19.85
2022-07-26T09:35:37.053Z,19.92
2022-07-26T09:37:58.486Z,19.94
2022-07-26T09:40:35.186Z,20.00
2022-07-26T09:43:05.604Z,20.04
2022-07-26T09:45:36.632Z,19.99
2022-07-26T09:48:05.226Z,19.93
2022-07-26T09:50:33.894Z,20.05
2022-07-26T09:53:13.318Z,20.22
2022-07-26T09:55:46.587Z,20.43
2022-07-26T09:58:17.564Z,20.59
2022-07-26T10:00:45.117Z,20.74
2022-07-26T10:03:13.371Z,20.78
2022-07-26T10:05:42.043Z,20.76
2022-07-26T10:08:10.710Z,20.75
2022-07-26T10:11:02.113Z,20.78
2022-07-26T10:13:30.433Z,20.78
2022-07-26T10:15:58.013Z,21.34
2022-07-26T10:18:38.128Z,21.63
2022-07-26T10:21:32.144Z,21.95
2022-07-26T10:24:02.675Z,22.14
2022-07-26T10:26:32.894Z,22.23
2022-07-26T10:29:19.372Z,22.83
2022-07-26T10:32:03.999Z,23.42
2022-07-26T10:34:34.627Z,23.55
2022-07-26T10:37:08.788Z,23.57
2022-07-26T10:39:39.059Z,23.42
2022-07-26T10:42:11.655Z,23.31
2022-07-26T10:44:45.155Z,23.29
2022-07-26T10:47:18.874Z,23.24
2022-07-26T10:49:59.238Z,23.11
2022-07-26T10:52:32.928Z,22.93
2022-07-26T10:55:00.028Z,22.74
2022-07-26T10:57:41.096Z,22.58
2022-07-26T11:00:19.227Z,22.41
2022-07-26T11:02:57.723Z,22.23
2022-07-26T11:05:33.020Z,22.13
2022-07-26T11:08:10.726Z,21.93
2022-07-26T11:10:46.786Z,21.68
2022-07-26T11:13:25.814Z,21.32
2022-07-26T11:16:03.008Z,20.83
2022-07-26T11:18:36.993Z,20.48
2022-07-26T11:21:24.584Z,20.08
2022-07-26T11:23:52.078Z,19.62
2022-07-26T11:26:25.815Z,19.28
2022-07-26T11:29:06.211Z,19.07
2022-07-26T11:31:49.446Z,18.89
2022-07-26T11:34:24.863Z,18.84
2022-07-26T11:36:57.594Z,18.71
2022-07-26T11:39:32.049Z,18.65
2022-07-26T11:42:11.815Z,18.64
2022-07-26T11:44:45.661Z,18.66
2022-07-26T11:47:25.699Z,18.69
2022-07-26T11:50:21.905Z,18.61
2022-07-26T11:52:42.100Z,18.56
2022-07-26T11:55:09.935Z,18.51
2022-07-26T11:57:37.324Z,18.39
2022-07-26T12:00:06.706Z,18.19
2022-07-26T12:02:40.403Z,18.01
2022-07-26T12:05:23.714Z,17.91
2022-07-26T12:08:05.140Z,17.88
2022-07-26T12:10:32.936Z,17.90
2022-07-26T12:13:16.051Z,17.98
2022-07-26T12:15:53.196Z,18.02
2022-07-26T12:18:30.443Z,18.04
2022-07-26T12:21:09.094Z,18.11
2022-07-26T12:23:51.079Z,18.17
2022-07-26T12:26:27.331Z,18.26
2022-07-26T12:28:57.056Z,18.37
2022-07-26T12:31:30.993Z,18.47
2022-07-26T12:33:58.945Z,18.54
2022-07-26T12:36:29.443Z,18.60
2022-07-26T12:38:59.666Z,18.67
2022-07-26T12:41:40.051Z,18.70
2022-07-26T12:44:12.671Z,18.72
2022-07-26T12:46:40.593Z,18.72
2022-07-26T12:49:08.014Z,18.76
2022-07-26T12:51:35.586Z,18.82
2022-07-26T12:54:06.363Z,18.92
2022-07-26T12:56:34.443Z,18.99
2022-07-26T12:59:01.965Z,19.09
2022-07-26T13:01:31.757Z,19.17
2022-07-26T13:03:59.724Z,19.22
2022-07-26T13:06:27.318Z,19.25
2022-07-26T13:08:54.519Z,19.29
2022-07-26T13:11:21.734Z,19.32
2022-07-26T13:13:49.524Z,19.37
2022-07-26T13:16:16.729Z,19.40
2022-07-26T13:18:43.916Z,19.43
2022-07-26T13:21:11.914Z,19.45
2022-07-26T13:23:39.150Z,19.45
2022-07-26T13:26:09.273Z,19.41
2022-07-26T13:28:39.902Z,19.35
2022-07-26T13:31:07.391Z,19.34
2022-07-26T13:33:34.727Z,19.32
2022-07-26T13:36:02.215Z,19.33
2022-07-26T13:38:33.406Z,19.41
2022-07-26T13:41:02.419Z,19.50
2022-07-26T13:43:31.430Z,19.64
2022-07-26T13:45:58.936Z,19.78
2022-07-26T13:48:26.197Z,19.83
2022-07-26T13:50:57.622Z,19.90
2022-07-26T13:53:26.052Z,19.93
2022-07-26T13:55:53.346Z,19.93
2022-07-26T13:58:21.689Z,19.93
2022-07-26T14:00:49.596Z,19.78
2022-07-26T14:03:17.421Z,19.72
2022-07-26T14:05:44.902Z,19.64
2022-07-26T14:08:12.350Z,19.52
2022-07-26T14:10:40.782Z,19.46
2022-07-26T14:13:09.574Z,19.44
2022-07-26T14:15:37.104Z,19.44
2022-07-26T14:18:04.967Z,19.45
2022-07-26T14:20:32.431Z,19.43
2022-07-26T14:23:00.725Z,19.47
2022-07-26T14:25:28.685Z,19.54
2022-07-26T14:27:56.152Z,19.62
2022-07-26T14:30:24.023Z,19.71
2022-07-26T14:32:51.341Z,19.84
2022-07-26T14:35:18.819Z,19.91
2022-07-26T14:37:46.390Z,19.85
2022-07-26T14:40:17.321Z,19.77
2022-07-26T14:42:46.586Z,19.76
2022-07-26T14:45:19.194Z,19.79
2022-07-26T14:47:46.482Z,19.79
2022-07-26T14:50:15.254Z,19.90
2022-07-26T14:52:47.862Z,19.99
2022-07-26T14:55:20.391Z,20.17
2022-07-26T14:57:51.839Z,20.24
2022-07-26T15:00:19.152Z,20.35
2022-07-26T15:02:49.409Z,20.50
2022-07-26T15:05:18.132Z,20.50
2022-07-26T15:07:46.130Z,20.50
2022-07-26T15:10:15.680Z,20.63
2022-07-26T15:12:43.693Z,20.71
2022-07-26T15:15:11.566Z,20.65
2022-07-26T15:17:39.128Z,20.56
2022-07-26T15:20:07.878Z,20.45
2022-07-26T15:22:36.168Z,20.32
2022-07-26T15:25:04.282Z,20.31
2022-07-26T15:27:31.602Z,20.32
2022-07-26T15:30:04.227Z,20.30
2022-07-26T15:32:35.261Z,20.27
2022-07-26T15:35:04.386Z,20.33
2022-07-26T15:37:31.595Z,20.42
2022-07-26T15:39:59.468Z,20.43
2022-07-26T15:42:29.792Z,20.43
2022-07-26T15:44:57.262Z,20.56
2022-07-26T15:47:52.888Z,20.82
2022-07-26T15:50:15.464Z,20.99
2022-07-26T15:52:47.630Z,21.03
2022-07-26T15:55:17.879Z,20.92
2022-07-26T15:57:46.705Z,20.83
2022-07-26T16:00:15.912Z,20.93
2022-07-26T16:02:43.859Z,21.20
2022-07-26T16:05:12.458Z,21.19
2022-07-26T16:07:42.334Z,21.07
2022-07-26T16:10:13.432Z,20.92
2022-07-26T16:12:42.215Z,20.82
2022-07-26T16:15:11.562Z,20.78
2022-07-26T16:17:40.056Z,20.72
2022-07-26T16:20:09.607Z,20.54
2022-07-26T16:22:40.838Z,20.45
2022-07-26T16:25:09.988Z,20.37
2022-07-26T16:27:37.176Z,20.34
2022-07-26T16:30:05.299Z,20.23
2022-07-26T16:32:33.387Z,20.19
2022-07-26T16:35:00.595Z,20.16
2022-07-26T16:37:27.846Z,20.16
2022-07-26T16:39:55.754Z,20.19
2022-07-26T16:42:23.474Z,20.12
2022-07-26T16:44:51.107Z,20.13
2022-07-26T16:47:18.381Z,20.12
2022-07-26T16:49:46.226Z,20.15
2022-07-26T16:52:13.471Z,20.13
2022-07-26T16:54:41.351Z,20.15
2022-07-26T16:57:08.748Z,20.19
2022-07-26T16:59:36.114Z,20.21
2022-07-26T17:02:03.497Z,20.22
2022-07-26T17:04:30.909Z,20.08
2022-07-26T17:07:23.495Z,20.06
2022-07-26T17:09:45.274Z,19.89
2022-07-26T17:12:12.508Z,19.82
2022-07-26T17:14:39.678Z,19.75
2022-07-26T17:17:07.139Z,19.66
2022-07-26T17:19:34.622Z,19.58
2022-07-26T17:22:02.100Z,19.55
2022-07-26T17:24:29.588Z,19.48
2022-07-26T17:26:57.317Z,19.38
2022-07-26T17:29:24.558Z,19.34
2022-07-26T17:31:51.792Z,19.31
2022-07-26T17:34:19.117Z,19.29
2022-07-26T17:36:46.752Z,19.27
2022-07-26T17:39:15.640Z,19.27
2022-07-26T17:41:48.991Z,19.28
2022-07-26T17:44:16.569Z,19.26
2022-07-26T17:46:43.850Z,19.28
2022-07-26T17:49:11.860Z,19.29
2022-07-26T17:51:39.490Z,19.22
2022-07-26T17:54:06.988Z,19.15
2022-07-26T17:56:35.610Z,19.05
2022-07-26T17:59:02.993Z,18.94
2022-07-26T18:01:31.094Z,18.88
2022-07-26T18:03:58.612Z,18.83
2022-07-26T18:06:26.005Z,18.73
2022-07-26T18:08:53.258Z,18.62
2022-07-26T18:11:20.870Z,18.52
2022-07-26T18:13:48.090Z,18.48
2022-07-26T18:16:15.379Z,18.46
2022-07-26T18:18:43.411Z,18.44
2022-07-26T18:21:10.858Z,18.38
2022-07-26T18:23:42.897Z,18.30
2022-07-26T18:26:24.195Z,18.25
2022-07-26T18:28:51.814Z,18.23
2022-07-26T18:31:19.513Z,18.22
2022-07-26T18:33:46.802Z,18.24
2022-07-26T18:36:14.246Z,18.20
2022-07-26T18:38:41.527Z,18.15
2022-07-26T18:41:10.387Z,18.06
2022-07-26T18:43:37.694Z,18.04
2022-07-26T18:46:06.233Z,17.96
2022-07-26T18:48:34.064Z,17.90
2022-07-26T18:51:01.411Z,17.85
2022-07-26T18:53:29.172Z,17.82
2022-07-26T18:55:57.407Z,17.81
2022-07-26T18:58:27.458Z,17.78
2022-07-26T19:00:54.947Z,17.73
2022-07-26T19:03:22.239Z,17.70
2022-07-26T19:05:49.511Z,17.68
2022-07-26T19:08:16.730Z,17.63
2022-07-26T19:10:43.993Z,17.55
2022-07-26T19:13:11.202Z,17.48
2022-07-26T19:15:38.429Z,17.39
2022-07-26T19:18:16.379Z,17.33
2022-07-26T19:20:44.765Z,17.25
2022-07-26T19:23:12.034Z,17.20
2022-07-26T19:25:40.811Z,17.16
2022-07-26T19:28:08.594Z,17.10
2022-07-26T19:30:36.977Z,17.02
2022-07-26T19:33:04.516Z,16.94
2022-07-26T19:35:31.809Z,16.91
2022-07-26T19:37:59.065Z,16.89
2022-07-26T19:40:26.532Z,16.87
2022-07-26T19:42:54.192Z,16.84
2022-07-26T19:45:21.602Z,16.81
2022-07-26T19:47:49.174Z,16.78
2022-07-26T19:50:16.377Z,16.74
2022-07-26T19:52:43.642Z,16.71
2022-07-26T19:55:11.305Z,16.68
2022-07-26T19:57:38.837Z,16.63
2022-07-26T20:00:09.389Z,16.61
2022-07-26T20:02:41.076Z,16.58
2022-07-26T20:05:12.032Z,16.52
2022-07-26T20:07:40.061Z,16.48
2022-07-26T20:10:08.586Z,16.49
2022-07-26T20:12:37.315Z,16.44
2022-07-26T20:15:07.629Z,16.42
2022-07-26T20:17:35.639Z,16.40
2022-07-26T20:20:04.313Z,16.39
2022-07-26T20:22:31.524Z,16.36
2022-07-26T20:24:58.810Z,16.29
2022-07-26T20:27:26.004Z,16.25
2022-07-26T20:29:57.427Z,16.20
2022-07-26T20:32:27.744Z,16.16
2022-07-26T20:34:55.220Z,16.10
2022-07-26T20:37:22.400Z,16.08
2022-07-26T20:39:49.811Z,16.04
2022-07-26T20:42:21.254Z,15.99
2022-07-26T20:44:49.223Z,15.95
2022-07-26T20:47:16.479Z,15.93
2022-07-26T20:49:45.218Z,15.94
2022-07-26T20:52:12.463Z,15.89
2022-07-26T20:54:39.743Z,15.86
2022-07-26T20:57:06.977Z,15.84
2022-07-26T20:59:35.185Z,15.81
2022-07-26T21:02:02.617Z,15.81
2022-07-26T21:04:30.185Z,15.81
2022-07-26T21:06:57.599Z,15.80
2022-07-26T21:09:29.836Z,15.80
2022-07-26T21:11:57.855Z,15.81
2022-07-26T21:14:25.100Z,15.80
2022-07-26T21:16:52.422Z,15.76
2022-07-26T21:19:19.811Z,15.73
2022-07-26T21:21:47.111Z,15.71
2022-07-26T21:24:14.422Z,15.68
2022-07-26T21:26:41.689Z,15.64
2022-07-26T21:29:10.240Z,15.61
2022-07-26T21:31:38.223Z,15.58
2022-07-26T21:34:05.595Z,15.54
2022-07-26T21:36:33.082Z,15.50
2022-07-26T21:39:00.297Z,15.46
2022-07-26T21:41:27.625Z,15.42
2022-07-26T21:43:54.873Z,15.40
2022-07-26T21:46:22.156Z,15.39
2022-07-26T21:48:49.534Z,15.37
2022-07-26T21:51:17.145Z,15.34
2022-07-26T21:53:45.728Z,15.33
2022-07-26T21:56:12.986Z,15.31
2022-07-26T21:58:40.453Z,15.29
2022-07-26T22:01:11.160Z,15.27
2022-07-26T22:03:40.953Z,15.23
2022-07-26T22:06:09.632Z,15.20
2022-07-26T22:08:38.290Z,15.18
2022-07-26T22:11:06.187Z,15.15
2022-07-26T22:13:33.435Z,15.12
2022-07-26T22:16:00.684Z,15.10
2022-07-26T22:18:28.418Z,15.04
2022-07-26T22:20:56.195Z,15.02
2022-07-26T22:23:29.852Z,15.00
2022-07-26T22:26:03.407Z,14.95
2022-07-26T22:28:34.197Z,14.93
2022-07-26T22:31:02.185Z,14.90
2022-07-26T22:33:29.590Z,14.87
2022-07-26T22:35:56.809Z,14.83
2022-07-26T22:38:24.164Z,14.79
2022-07-26T22:40:51.541Z,14.76
2022-07-26T22:43:18.853Z,14.75
2022-07-26T22:45:46.182Z,14.72
2022-07-26T22:48:13.625Z,14.70
2022-07-26T22:50:40.974Z,14.67
2022-07-26T22:53:08.242Z,14.64
2022-07-26T22:55:35.506Z,14.62
2022-07-26T22:58:02.807Z,14.58
2022-07-26T23:00:30.441Z,14.55
2022-07-26T23:02:57.626Z,14.52
2022-07-26T23:05:32.619Z,14.49
2022-07-26T23:08:44.227Z,14.47
2022-07-26T23:10:59.293Z,14.43
2022-07-26T23:13:26.727Z,14.40
2022-07-26T23:15:59.640Z,14.36
2022-07-26T23:18:28.212Z,14.32
2022-07-26T23:20:55.433Z,14.28
2022-07-26T23:23:22.694Z,14.26
2022-07-26T23:25:52.590Z,14.22
2022-07-26T23:28:36.231Z,14.21
2022-07-26T23:31:12.773Z,14.19
2022-07-26T23:33:53.489Z,14.15
2022-07-26T23:36:27.472Z,14.14
2022-07-26T23:38:58.634Z,14.12
2022-07-26T23:41:27.481Z,14.09
2022-07-26T23:43:55.906Z,14.05
2022-07-26T23:46:25.225Z,13.99
2022-07-26T23:48:53.292Z,13.97
2022-07-26T23:51:23.110Z,13.95
2022-07-26T23:53:51.970Z,13.91
2022-07-26T23:56:19.671Z,13.88
2022-07-26T23:58:47.117Z,13.86
